Terminal Aerodrome Forecast
Issued by NWS Chicago, IL

Home | Current Version | Previous Version | Graphics & Text | Print | Product List | Glossary On
Versions: 1 2 3 4 5 6 7 8 9 10 11 12 13 14 15 16 17 18 19 20 21 22 23 24 25 26 27 28 29 30 31
000
FTUS43 KLOT 132000 AAB
TAFRFD
TAF AMD
KRFD 132001Z 1320/1418 09008KT 4SM -SHRA BR SCT007 BKN015 BKN025
     FM132300 05012KT 3SM SHRA OVC007
      TEMPO 1323/1403 2SM TSRA BR OVC007CB
     FM140300 02016G24KT 4SM RA BR OVC009
     FM141200 35017G26KT P6SM VCSH BKN015 PROB30 1412/1418 5SM RASN=

USA.gov is the U.S. government's official web portal to all federal, state and local government web resources and services.